You are listening to:
CYXU App/Dep (London Sector) - London, Ontario, Canada

CYXU 220800Z 20009KT 12SM SCT250 M06/M08 A3036 RMK CI3 SLP300

If stream does not start automatically press the play button